Terminal Aerodrome Forecast
Issued by NWS

Home | Current Version | Previous Version | Text Only | Print | Product List | Glossary On
Versions: 1 2 3 4 5 6 7 8 9 10 11 12 13 14 15 16 17 18
000
FTUS46 KMTR 310500
TAFSTS
TAF
KSTS 310537Z 3106/0106 15004KT P6SM SKC
     FM310900 00000KT P6SM OVC005
     FM311700 VRB04KT P6SM SKC
     FM312100 20010KT P6SM SKC
     FM010500 16005KT P6SM SKC=

USA.gov is the U.S. government's official web portal to all federal, state and local government web resources and services.